createdAt,value
2023-04-30T00:01:53.796Z,6.18
2023-04-30T00:04:26.899Z,7.18
2023-04-30T00:06:59.803Z,6.82
2023-04-30T00:09:32.750Z,6.82
2023-04-30T00:12:05.653Z,7.28
2023-04-30T00:14:38.568Z,6.70
2023-04-30T00:17:11.439Z,7.22
2023-04-30T00:19:44.500Z,6.82
2023-04-30T00:22:17.210Z,6.68
2023-04-30T00:24:50.288Z,7.50
2023-04-30T00:27:22.892Z,6.63
2023-04-30T00:29:56.324Z,7.60
2023-04-30T00:32:29.106Z,7.03
2023-04-30T00:35:02.164Z,6.20
2023-04-30T00:37:34.784Z,5.97
2023-04-30T00:40:08.416Z,5.97
2023-04-30T00:42:41.104Z,6.25
2023-04-30T00:45:14.085Z,5.60
2023-04-30T00:47:46.848Z,6.45
2023-04-30T00:50:20.430Z,5.45
2023-04-30T00:52:53.181Z,6.18
2023-04-30T00:55:27.304Z,6.63
2023-04-30T00:58:01.282Z,5.45
2023-04-30T01:00:34.881Z,7.20
2023-04-30T01:03:07.845Z,6.40
2023-04-30T01:05:41.173Z,5.72
2023-04-30T01:08:14.066Z,5.22
2023-04-30T01:10:55.315Z,6.93
2023-04-30T01:13:30.758Z,5.40
2023-04-30T01:16:12.374Z,5.80
2023-04-30T01:18:49.610Z,6.32
2023-04-30T01:21:23.735Z,5.60
2023-04-30T01:23:59.234Z,6.00
2023-04-30T01:26:38.552Z,5.80
2023-04-30T01:29:12.761Z,6.13
2023-04-30T01:31:45.889Z,6.10
2023-04-30T01:34:18.654Z,5.90
2023-04-30T01:36:55.222Z,5.72
2023-04-30T01:39:48.038Z,5.90
2023-04-30T01:42:22.532Z,5.32
2023-04-30T01:45:13.756Z,5.15
2023-04-30T01:47:46.716Z,5.88
2023-04-30T01:50:38.962Z,5.35
2023-04-30T01:53:14.526Z,5.85
2023-04-30T01:55:53.000Z,4.75
2023-04-30T01:58:26.703Z,6.00
2023-04-30T02:00:59.873Z,5.50
2023-04-30T02:03:33.590Z,5.25
2023-04-30T02:06:06.567Z,5.32
2023-04-30T02:08:39.620Z,5.22
2023-04-30T02:11:12.362Z,4.55
2023-04-30T02:13:46.436Z,5.28
2023-04-30T02:16:19.267Z,5.03
2023-04-30T02:18:52.285Z,4.78
2023-04-30T02:21:25.898Z,4.70
2023-04-30T02:24:07.707Z,4.82
2023-04-30T02:26:40.421Z,4.93
2023-04-30T02:29:13.365Z,4.57
2023-04-30T02:31:46.139Z,5.00
2023-04-30T02:34:19.142Z,3.92
2023-04-30T02:36:52.053Z,4.50
2023-04-30T02:39:25.533Z,4.43
2023-04-30T02:41:59.364Z,5.70
2023-04-30T02:44:37.319Z,4.82
2023-04-30T02:47:10.228Z,4.57
2023-04-30T02:49:43.345Z,5.15
2023-04-30T02:52:16.229Z,4.60
2023-04-30T02:54:49.363Z,5.45
2023-04-30T02:57:22.013Z,5.22
2023-04-30T02:59:55.415Z,6.22
2023-04-30T03:02:28.545Z,4.13
2023-04-30T03:05:01.832Z,4.57
2023-04-30T03:07:34.462Z,4.50
2023-04-30T03:10:08.096Z,4.53
2023-04-30T03:12:40.689Z,4.95
2023-04-30T03:15:13.830Z,5.75
2023-04-30T03:17:46.637Z,5.55
2023-04-30T03:20:19.892Z,4.75
2023-04-30T03:22:52.490Z,5.70
2023-04-30T03:25:25.480Z,5.85
2023-04-30T03:27:59.147Z,4.68
2023-04-30T03:30:32.350Z,5.10
2023-04-30T03:33:07.098Z,5.75
2023-04-30T03:35:40.221Z,5.20
2023-04-30T03:38:12.831Z,5.90
2023-04-30T03:40:46.046Z,5.13
2023-04-30T03:43:18.756Z,5.63
2023-04-30T03:45:52.748Z,4.43
2023-04-30T03:48:25.868Z,5.30
2023-04-30T03:51:00.166Z,6.00
2023-04-30T03:53:32.925Z,5.22
2023-04-30T03:56:06.307Z,5.65
2023-04-30T03:58:39.227Z,5.95
2023-04-30T04:01:12.410Z,5.13
2023-04-30T04:03:44.966Z,5.35
2023-04-30T04:06:18.213Z,4.82
2023-04-30T04:08:52.388Z,4.78
2023-04-30T04:11:25.484Z,4.95
2023-04-30T04:13:58.463Z,5.80
2023-04-30T04:16:31.564Z,5.82
2023-04-30T04:19:04.925Z,5.93
2023-04-30T04:21:38.631Z,5.18
2023-04-30T04:24:17.945Z,5.85
2023-04-30T04:26:51.808Z,5.45
2023-04-30T04:29:24.490Z,6.20
2023-04-30T04:31:58.012Z,4.45
2023-04-30T04:34:30.763Z,4.97
2023-04-30T04:37:04.552Z,5.05
2023-04-30T04:39:37.813Z,5.18
2023-04-30T04:42:10.949Z,4.75
2023-04-30T04:44:44.335Z,5.47
2023-04-30T04:47:22.222Z,4.90
2023-04-30T04:49:55.217Z,5.05
2023-04-30T04:52:28.444Z,5.65
2023-04-30T04:55:01.234Z,5.70
2023-04-30T04:57:34.322Z,5.80
2023-04-30T05:00:08.662Z,6.03
2023-04-30T05:02:42.683Z,5.43
2023-04-30T05:05:15.563Z,5.80
2023-04-30T05:07:50.844Z,4.53
2023-04-30T05:10:23.626Z,4.90
2023-04-30T05:12:57.188Z,6.72
2023-04-30T05:15:29.919Z,5.60
2023-04-30T05:18:03.036Z,5.10
2023-04-30T05:20:35.925Z,6.10
2023-04-30T05:23:09.343Z,4.85
2023-04-30T05:25:42.010Z,6.32
2023-04-30T05:28:15.041Z,4.95
2023-04-30T05:30:48.070Z,5.75
2023-04-30T05:33:21.112Z,6.32
2023-04-30T05:35:54.121Z,5.25
2023-04-30T05:38:27.292Z,5.45
2023-04-30T05:41:00.645Z,5.10
2023-04-30T05:43:34.112Z,7.45
2023-04-30T05:46:07.411Z,5.95
2023-04-30T05:48:40.531Z,5.50
2023-04-30T05:51:13.134Z,5.85
2023-04-30T05:53:46.156Z,4.97
2023-04-30T05:56:18.874Z,4.55
2023-04-30T05:58:52.989Z,4.55
2023-04-30T06:01:25.755Z,4.45
2023-04-30T06:04:01.665Z,6.00
2023-04-30T06:06:34.359Z,4.35
2023-04-30T06:09:07.296Z,4.20
2023-04-30T06:11:42.373Z,5.15
2023-04-30T06:14:15.780Z,4.75
2023-04-30T06:16:48.811Z,4.35
2023-04-30T06:19:21.848Z,4.40
2023-04-30T06:21:54.698Z,4.43
2023-04-30T06:24:28.054Z,4.32
2023-04-30T06:27:00.878Z,5.22
2023-04-30T06:29:33.882Z,4.43
2023-04-30T06:32:08.644Z,4.05
2023-04-30T06:34:41.784Z,3.88
2023-04-30T06:37:14.397Z,4.32
2023-04-30T06:39:47.472Z,4.18
2023-04-30T06:42:20.224Z,4.18
2023-04-30T06:44:53.208Z,5.65
2023-04-30T06:47:25.877Z,3.45
2023-04-30T06:49:58.914Z,3.70
2023-04-30T06:52:31.826Z,3.90
2023-04-30T06:55:04.882Z,3.83
2023-04-30T06:57:37.936Z,4.60
2023-04-30T07:00:11.211Z,4.72
2023-04-30T07:02:44.173Z,3.05
2023-04-30T07:05:17.342Z,4.25
2023-04-30T07:07:49.983Z,3.92
2023-04-30T07:10:23.117Z,4.53
2023-04-30T07:12:55.991Z,3.40
2023-04-30T07:15:28.980Z,4.10
2023-04-30T07:18:01.655Z,3.40
2023-04-30T07:20:35.654Z,3.38
2023-04-30T07:23:08.228Z,3.40
2023-04-30T07:25:41.421Z,3.88
2023-04-30T07:28:14.086Z,4.30
2023-04-30T07:30:47.197Z,3.65
2023-04-30T07:33:19.858Z,3.58
2023-04-30T07:35:53.113Z,3.63
2023-04-30T07:38:25.945Z,3.97
2023-04-30T07:40:58.918Z,4.40
2023-04-30T07:43:31.901Z,3.78
2023-04-30T07:46:05.108Z,3.10
2023-04-30T07:48:38.236Z,3.58
2023-04-30T07:51:11.351Z,4.15
2023-04-30T07:53:43.986Z,3.75
2023-04-30T07:56:16.962Z,3.15
2023-04-30T07:58:49.586Z,3.10
2023-04-30T08:01:22.683Z,2.90
2023-04-30T08:03:55.441Z,2.75
2023-04-30T08:06:29.421Z,3.60
2023-04-30T08:09:02.163Z,3.40
2023-04-30T08:11:35.184Z,3.03
2023-04-30T08:14:07.911Z,3.10
2023-04-30T08:16:41.149Z,3.47
2023-04-30T08:19:14.130Z,3.38
2023-04-30T08:21:47.477Z,3.70
2023-04-30T08:24:20.062Z,3.20
2023-04-30T08:26:56.038Z,3.40
2023-04-30T08:29:29.202Z,3.17
2023-04-30T08:32:04.308Z,3.78
2023-04-30T08:34:36.938Z,3.22
2023-04-30T08:37:10.011Z,3.00
2023-04-30T08:39:42.634Z,3.30
2023-04-30T08:42:18.310Z,3.25
2023-04-30T08:44:50.885Z,3.45
2023-04-30T08:47:24.672Z,3.90
2023-04-30T08:49:57.537Z,2.88
2023-04-30T08:52:30.714Z,3.00
2023-04-30T08:55:07.574Z,3.25
2023-04-30T08:57:40.584Z,3.08
2023-04-30T09:00:13.501Z,2.83
2023-04-30T09:02:47.353Z,2.97
2023-04-30T09:05:20.056Z,3.28
2023-04-30T09:08:03.151Z,3.28
2023-04-30T09:10:36.646Z,3.15
2023-04-30T09:13:10.082Z,2.88
2023-04-30T09:15:43.621Z,3.35
2023-04-30T09:18:19.103Z,2.72
2023-04-30T09:20:59.200Z,2.97
2023-04-30T09:23:32.246Z,3.30
2023-04-30T09:26:05.058Z,3.15
2023-04-30T09:28:37.967Z,3.78
2023-04-30T09:31:19.946Z,2.95
2023-04-30T09:33:54.052Z,2.88
2023-04-30T09:36:28.246Z,2.58
2023-04-30T09:39:16.483Z,3.03
2023-04-30T09:41:50.826Z,2.60
2023-04-30T09:44:28.742Z,2.55
2023-04-30T09:47:01.546Z,2.78
2023-04-30T09:49:38.244Z,2.42
2023-04-30T09:52:11.787Z,2.03
2023-04-30T09:54:45.811Z,3.10
2023-04-30T09:57:21.481Z,2.45
2023-04-30T09:59:54.837Z,2.47
2023-04-30T10:02:27.971Z,1.45
2023-04-30T10:05:01.476Z,2.17
2023-04-30T10:07:36.304Z,2.28
2023-04-30T10:10:10.600Z,2.20
2023-04-30T10:12:44.845Z,2.00
2023-04-30T10:15:19.485Z,2.22
2023-04-30T10:17:57.142Z,2.60
2023-04-30T10:20:31.360Z,2.05
2023-04-30T10:23:04.293Z,1.90
2023-04-30T10:25:38.932Z,2.05
2023-04-30T10:28:11.574Z,2.30
2023-04-30T10:30:44.724Z,2.95
2023-04-30T10:33:23.751Z,2.63
2023-04-30T10:36:01.332Z,1.70
2023-04-30T10:38:35.192Z,2.60
2023-04-30T10:41:09.906Z,2.08
2023-04-30T10:43:42.527Z,1.90
2023-04-30T10:46:24.845Z,2.05
2023-04-30T10:51:49.399Z,2.08
2023-04-30T10:54:26.139Z,2.92
2023-04-30T10:57:14.762Z,2.60
2023-04-30T11:00:05.814Z,2.38
2023-04-30T11:02:44.339Z,2.25
2023-04-30T11:05:20.898Z,2.55
2023-04-30T11:07:57.778Z,1.98
2023-04-30T11:10:33.430Z,2.00
2023-04-30T11:13:07.191Z,1.95
2023-04-30T11:15:45.430Z,2.05
2023-04-30T11:18:19.149Z,2.35
2023-04-30T11:20:52.380Z,2.08
2023-04-30T11:23:38.368Z,2.05
2023-04-30T11:26:14.361Z,1.80
2023-04-30T11:28:51.762Z,2.25
2023-04-30T11:31:33.240Z,2.00
2023-04-30T11:36:39.677Z,1.60
2023-04-30T11:39:12.891Z,2.75
2023-04-30T11:41:46.637Z,2.00
2023-04-30T11:44:23.587Z,2.45
2023-04-30T11:46:56.367Z,2.92
2023-04-30T11:49:29.439Z,2.28
2023-04-30T11:52:02.172Z,2.13
2023-04-30T11:54:37.040Z,2.35
2023-04-30T11:57:09.910Z,1.42
2023-04-30T11:59:44.151Z,1.90
2023-04-30T12:02:17.168Z,1.95
2023-04-30T12:04:50.324Z,3.13
2023-04-30T12:07:23.839Z,2.00
2023-04-30T12:09:57.351Z,1.58
2023-04-30T12:12:30.512Z,1.50
2023-04-30T12:15:11.610Z,2.22
2023-04-30T12:17:45.215Z,1.67
2023-04-30T12:20:19.155Z,1.52
2023-04-30T12:22:51.958Z,2.15
2023-04-30T12:25:25.320Z,2.30
2023-04-30T12:27:59.824Z,1.80
2023-04-30T12:30:32.991Z,1.73
2023-04-30T12:33:06.595Z,1.95
2023-04-30T12:35:42.772Z,1.60
2023-04-30T12:38:17.123Z,1.83
2023-04-30T12:40:50.298Z,2.05
2023-04-30T12:43:22.926Z,1.45
2023-04-30T12:45:56.906Z,1.92
2023-04-30T12:48:29.563Z,1.92
2023-04-30T12:51:03.239Z,1.50
2023-04-30T12:53:45.001Z,1.38
2023-04-30T12:56:18.267Z,2.08
2023-04-30T12:58:51.502Z,1.92
2023-04-30T13:01:25.819Z,1.38
2023-04-30T13:03:58.896Z,1.52
2023-04-30T13:06:33.635Z,1.98
2023-04-30T13:09:06.335Z,1.80
2023-04-30T13:11:39.370Z,1.42
2023-04-30T13:14:13.536Z,1.60
2023-04-30T13:16:46.629Z,1.90
2023-04-30T13:19:19.320Z,1.60
2023-04-30T13:21:52.432Z,1.60
2023-04-30T13:24:25.291Z,2.05
2023-04-30T13:26:59.709Z,1.90
2023-04-30T13:29:32.440Z,1.92
2023-04-30T13:32:05.492Z,1.83
2023-04-30T13:34:38.090Z,1.50
2023-04-30T13:37:11.245Z,1.58
2023-04-30T13:39:43.821Z,1.67
2023-04-30T13:42:16.826Z,2.40
2023-04-30T13:44:50.477Z,1.75
2023-04-30T13:47:23.582Z,1.65
2023-04-30T13:49:56.571Z,1.50
2023-04-30T13:52:29.927Z,1.35
2023-04-30T13:55:02.905Z,2.13
2023-04-30T13:57:35.810Z,1.27
2023-04-30T14:00:09.636Z,2.03
2023-04-30T14:02:42.819Z,1.40
2023-04-30T14:05:16.751Z,1.70
2023-04-30T14:07:49.721Z,1.33
2023-04-30T14:10:22.411Z,1.60
2023-04-30T14:12:55.648Z,1.60
2023-04-30T14:15:30.916Z,1.20
2023-04-30T14:18:04.389Z,1.30
2023-04-30T14:20:37.246Z,1.25
2023-04-30T14:23:10.323Z,1.45
2023-04-30T14:25:42.990Z,0.95
2023-04-30T14:28:15.952Z,1.00
2023-04-30T14:30:48.650Z,1.27
2023-04-30T14:33:21.612Z,1.20
2023-04-30T14:35:55.271Z,0.93
2023-04-30T14:38:28.566Z,1.88
2023-04-30T14:41:01.243Z,0.90
2023-04-30T14:43:34.296Z,1.70
2023-04-30T14:46:07.207Z,1.50
2023-04-30T14:48:40.294Z,1.33
2023-04-30T14:51:13.032Z,1.15
2023-04-30T14:53:46.023Z,0.95
2023-04-30T14:56:18.696Z,1.48
2023-04-30T14:58:51.622Z,1.48
2023-04-30T15:01:25.149Z,1.23
2023-04-30T15:03:59.595Z,1.42
2023-04-30T15:06:32.359Z,1.15
2023-04-30T15:09:05.376Z,1.63
2023-04-30T15:11:38.056Z,1.40
2023-04-30T15:14:11.403Z,1.20
2023-04-30T15:16:44.780Z,1.38
2023-04-30T15:19:17.872Z,1.25
2023-04-30T15:21:50.523Z,1.38
2023-04-30T15:24:23.833Z,1.15
2023-04-30T15:26:56.903Z,1.00
2023-04-30T15:29:29.866Z,1.65
2023-04-30T15:32:02.603Z,1.10
2023-04-30T15:34:35.636Z,1.35
2023-04-30T15:37:08.511Z,1.27
2023-04-30T15:39:41.719Z,1.65
2023-04-30T15:42:14.427Z,1.15
2023-04-30T15:44:47.436Z,1.20
2023-04-30T15:47:21.301Z,0.95
2023-04-30T15:49:56.662Z,1.85
2023-04-30T15:52:29.518Z,1.30
2023-04-30T15:55:02.550Z,1.15
2023-04-30T15:57:35.184Z,1.27
2023-04-30T16:00:09.253Z,2.00
2023-04-30T16:02:44.867Z,1.27
2023-04-30T16:05:19.479Z,1.17
2023-04-30T16:07:52.951Z,1.40
2023-04-30T16:10:26.138Z,1.83
2023-04-30T16:12:58.808Z,1.50
2023-04-30T16:15:32.842Z,1.13
2023-04-30T16:18:05.506Z,1.73
2023-04-30T16:20:39.894Z,1.48
2023-04-30T16:23:12.520Z,1.77
2023-04-30T16:25:45.542Z,1.77
2023-04-30T16:28:18.511Z,1.55
2023-04-30T16:30:51.659Z,1.15
2023-04-30T16:33:25.646Z,1.73
2023-04-30T16:35:58.734Z,0.95
2023-04-30T16:38:31.383Z,2.03
2023-04-30T16:41:04.372Z,1.42
2023-04-30T16:43:36.920Z,1.60
2023-04-30T16:46:10.043Z,1.95
2023-04-30T16:48:42.945Z,1.50
2023-04-30T16:51:16.016Z,2.35
2023-04-30T16:53:48.691Z,3.22
2023-04-30T16:56:21.941Z,6.32
2023-04-30T16:58:55.123Z,3.20
2023-04-30T17:01:28.375Z,2.10
2023-04-30T17:04:01.166Z,2.30
2023-04-30T17:06:35.793Z,2.10
2023-04-30T17:09:08.568Z,1.67
2023-04-30T17:11:41.902Z,2.65
2023-04-30T17:14:14.488Z,1.40
2023-04-30T17:16:47.819Z,2.03
2023-04-30T17:19:20.857Z,1.25
2023-04-30T17:21:53.911Z,1.38
2023-04-30T17:24:26.565Z,2.33
2023-04-30T17:27:01.364Z,1.63
2023-04-30T17:29:34.013Z,1.75
2023-04-30T17:32:07.074Z,1.70
2023-04-30T17:34:39.665Z,1.65
2023-04-30T17:37:12.736Z,2.00
2023-04-30T17:39:46.023Z,1.90
2023-04-30T17:42:20.224Z,1.38
2023-04-30T17:44:52.892Z,1.40
2023-04-30T17:47:26.058Z,1.50
2023-04-30T17:49:59.849Z,1.85
2023-04-30T17:52:35.978Z,1.60
2023-04-30T17:55:08.954Z,1.42
2023-04-30T17:57:42.231Z,1.45
2023-04-30T18:00:15.671Z,1.58
2023-04-30T18:02:48.783Z,3.00
2023-04-30T18:05:21.688Z,1.50
2023-04-30T18:07:54.597Z,1.80
2023-04-30T18:10:27.235Z,1.52
2023-04-30T18:13:00.227Z,1.45
2023-04-30T18:15:32.857Z,1.88
2023-04-30T18:18:06.348Z,1.75
2023-04-30T18:20:39.309Z,1.58
2023-04-30T18:23:13.870Z,1.90
2023-04-30T18:25:47.484Z,1.60
2023-04-30T18:28:20.497Z,1.95
2023-04-30T18:30:53.200Z,1.20
2023-04-30T18:33:26.551Z,1.63
2023-04-30T18:36:03.701Z,1.98
2023-04-30T18:38:39.361Z,1.63
2023-04-30T18:41:12.326Z,1.98
2023-04-30T18:43:45.436Z,1.27
2023-04-30T18:46:18.134Z,2.00
2023-04-30T18:48:51.330Z,2.08
2023-04-30T18:51:24.056Z,3.83
2023-04-30T18:53:57.700Z,3.90
2023-04-30T18:56:30.323Z,3.80
2023-04-30T18:59:03.809Z,3.85
2023-04-30T19:01:36.517Z,4.40
2023-04-30T19:04:16.197Z,4.88
2023-04-30T19:06:50.953Z,4.95
2023-04-30T19:09:24.021Z,10.82
2023-04-30T19:11:56.617Z,8.65
2023-04-30T19:14:29.839Z,7.78
2023-04-30T19:17:02.542Z,7.75
2023-04-30T19:19:36.028Z,7.72
2023-04-30T19:22:08.729Z,8.05
2023-04-30T19:24:41.716Z,5.57
2023-04-30T19:27:14.901Z,7.85
2023-04-30T19:29:48.155Z,4.88
2023-04-30T19:32:21.123Z,7.20
2023-04-30T19:34:54.293Z,5.60
2023-04-30T19:37:27.288Z,6.43
2023-04-30T19:40:00.364Z,6.13
2023-04-30T19:42:33.106Z,8.88
2023-04-30T19:45:10.126Z,10.52
2023-04-30T19:47:43.068Z,13.75
2023-04-30T19:50:16.374Z,13.18
2023-04-30T19:52:49.038Z,15.20
2023-04-30T19:55:22.161Z,13.90
2023-04-30T19:57:54.824Z,15.55
2023-04-30T20:00:28.098Z,14.32
2023-04-30T20:03:04.700Z,12.20
2023-04-30T20:05:39.721Z,12.43
2023-04-30T20:08:12.844Z,11.68
2023-04-30T20:10:47.493Z,10.80
2023-04-30T20:13:21.369Z,11.00
2023-04-30T20:15:54.438Z,10.65
2023-04-30T20:18:27.146Z,9.10
2023-04-30T20:21:00.307Z,9.90
2023-04-30T20:23:33.098Z,10.70
2023-04-30T20:26:06.561Z,11.65
2023-04-30T20:28:39.421Z,11.52
2023-04-30T20:31:13.090Z,9.50
2023-04-30T20:33:47.140Z,10.70
2023-04-30T20:36:20.759Z,7.80
2023-04-30T20:38:54.750Z,7.93
2023-04-30T20:41:29.377Z,7.57
2023-04-30T20:44:02.474Z,6.50
2023-04-30T20:46:36.668Z,7.63
2023-04-30T20:49:11.514Z,8.00
2023-04-30T20:51:44.579Z,7.93
2023-04-30T20:54:17.881Z,7.15
2023-04-30T20:56:50.965Z,7.65
2023-04-30T20:59:23.858Z,9.00
2023-04-30T21:01:56.995Z,8.90
2023-04-30T21:04:29.716Z,7.22
2023-04-30T21:07:02.869Z,10.40
2023-04-30T21:09:36.173Z,9.80
2023-04-30T21:12:09.961Z,9.32
2023-04-30T21:14:42.816Z,8.18
2023-04-30T21:17:15.809Z,8.25
2023-04-30T21:19:48.526Z,9.98
2023-04-30T21:22:21.550Z,7.85
2023-04-30T21:24:54.316Z,8.35
2023-04-30T21:27:28.413Z,9.43
2023-04-30T21:30:01.064Z,10.50
2023-04-30T21:32:34.117Z,14.32
2023-04-30T21:35:07.404Z,11.07
2023-04-30T21:37:41.245Z,10.00
2023-04-30T21:40:14.089Z,6.78
2023-04-30T21:42:47.189Z,6.25
2023-04-30T21:45:20.192Z,7.78
2023-04-30T21:47:53.244Z,6.82
2023-04-30T21:50:26.052Z,5.53
2023-04-30T21:52:59.019Z,5.15
2023-04-30T21:55:31.700Z,6.47
2023-04-30T21:58:04.918Z,6.68
2023-04-30T22:00:38.926Z,6.53
2023-04-30T22:03:12.021Z,5.82
2023-04-30T22:05:46.676Z,5.65
2023-04-30T22:08:19.961Z,6.38
2023-04-30T22:11:01.224Z,5.40
2023-04-30T22:13:34.097Z,5.85
2023-04-30T22:16:06.887Z,6.38
2023-04-30T22:18:40.249Z,6.70
2023-04-30T22:21:13.228Z,6.20
2023-04-30T22:23:46.393Z,5.43
2023-04-30T22:26:19.020Z,8.10
2023-04-30T22:28:52.041Z,8.82
2023-04-30T22:31:24.760Z,8.73
2023-04-30T22:33:57.754Z,6.15
2023-04-30T22:36:30.344Z,5.57
2023-04-30T22:39:04.218Z,7.03
2023-04-30T22:41:36.969Z,6.55
2023-04-30T22:44:09.925Z,5.85
2023-04-30T22:46:45.844Z,6.43
2023-04-30T22:49:30.019Z,7.40
2023-04-30T22:52:04.889Z,9.60
2023-04-30T22:54:37.900Z,7.95
2023-04-30T22:57:10.661Z,6.47
2023-04-30T22:59:43.593Z,6.20
2023-04-30T23:02:16.401Z,7.00
2023-04-30T23:04:50.047Z,7.68
2023-04-30T23:07:22.831Z,5.93
2023-04-30T23:09:56.230Z,6.72
2023-04-30T23:12:29.123Z,5.80
2023-04-30T23:15:02.455Z,6.20
2023-04-30T23:17:35.219Z,6.18
2023-04-30T23:20:08.969Z,7.88
2023-04-30T23:22:41.636Z,6.45
2023-04-30T23:25:14.711Z,5.53
2023-04-30T23:27:47.355Z,5.22
2023-04-30T23:30:20.432Z,6.05
2023-04-30T23:32:52.994Z,4.97
2023-04-30T23:35:26.267Z,6.82
2023-04-30T23:37:59.038Z,5.75
2023-04-30T23:40:32.022Z,6.97
2023-04-30T23:43:05.200Z,8.40
2023-04-30T23:45:43.906Z,7.20
2023-04-30T23:48:16.541Z,9.23
2023-04-30T23:51:02.778Z,5.97
2023-04-30T23:53:35.847Z,7.00
2023-04-30T23:56:09.026Z,6.20
2023-04-30T23:58:41.742Z,5.85
